Time;durP1;ratioP1;P1;durP2;ratioP2;P2;SDS_P1;SDS_P2;PMS_P1;PMS_P2;Temp;Humidity;BMP_temperature;BMP_pressure;BME280_temperature;BME280_humidity;BME280_pressure;Samples;Min_cycle;Max_cycle;Signal;HPM_P1;HPM_P2
2023/10/12 00:02:32;;;;;;;2.88;1.20;;;;;;;;;;4999835;28;20061;-88
2023/10/12 00:05:06;;;;;;;6.35;2.08;;;;;;;;;;4996372;28;20053;-86
2023/10/12 00:07:42;;;;;;;5.05;1.45;;;;;;;;;;4996287;28;20046;-87
2023/10/12 00:12:45;;;;;;;4.45;0.93;;;;;;;;;;4997184;28;20389;-87
2023/10/12 00:15:28;;;;;;;4.35;1.27;;;;;;;;;;4981197;28;20054;-87
2023/10/12 00:18:10;;;;;;;3.28;1.00;;;;;;;;;;4996518;28;20034;-87
2023/10/12 00:20:43;;;;;;;2.63;0.73;;;;;;;;;;5013988;28;20041;-87
2023/10/12 00:23:14;;;;;;;3.65;1.30;;;;;;;;;;4999374;28;20061;-89
2023/10/12 00:25:46;;;;;;;3.53;1.48;;;;;;;;;;4998071;28;20515;-88
2023/10/12 00:28:21;;;;;;;5.85;1.80;;;;;;;;;;4980785;28;20050;-88
2023/10/12 00:30:54;;;;;;;4.40;1.23;;;;;;;;;;4980929;28;20073;-89
2023/10/12 00:33:25;;;;;;;6.82;1.42;;;;;;;;;;4997423;28;20050;-91
2023/10/12 00:36:11;;;;;;;2.97;1.00;;;;;;;;;;4998994;28;20050;-93
2023/10/12 00:38:49;;;;;;;1.95;0.82;;;;;;;;;;5040160;28;20049;-92
2023/10/12 00:41:23;;;;;;;1.55;0.88;;;;;;;;;;5000451;28;20053;-90
2023/10/12 00:47:10;;;;;;;3.10;1.80;;;;;;;;;;4997510;28;20046;-87
2023/10/12 00:49:41;;;;;;;2.97;1.65;;;;;;;;;;4982097;28;20050;-87
2023/10/12 00:52:36;;;;;;;3.80;1.80;;;;;;;;;;5021786;28;20399;-87
2023/10/12 00:55:23;;;;;;;3.67;1.60;;;;;;;;;;5033018;28;20056;-85
2023/10/12 00:57:54;;;;;;;6.47;1.30;;;;;;;;;;4997873;28;20049;-87
2023/10/12 01:00:25;;;;;;;3.75;1.60;;;;;;;;;;4998059;28;20053;-85
2023/10/12 01:06:20;;;;;;;4.85;1.75;;;;;;;;;;4993570;28;20053;-87
2023/10/12 01:08:52;;;;;;;3.70;1.70;;;;;;;;;;5016279;28;20045;-90
2023/10/12 01:11:36;;;;;;;7.88;1.77;;;;;;;;;;4998422;28;20053;-87
2023/10/12 01:14:09;;;;;;;6.85;1.73;;;;;;;;;;5008151;28;20419;-85
2023/10/12 01:19:24;;;;;;;2.70;1.40;;;;;;;;;;4994127;28;20508;-84
2023/10/12 01:22:12;;;;;;;7.45;1.30;;;;;;;;;;4979035;28;20061;-87
2023/10/12 01:25:10;;;;;;;4.60;1.88;;;;;;;;;;5015255;28;20046;-89
2023/10/12 01:27:41;;;;;;;2.95;0.82;;;;;;;;;;4997009;28;20050;-90
2023/10/12 01:30:22;;;;;;;3.20;1.20;;;;;;;;;;4993841;27;20048;-86
2023/10/12 01:32:57;;;;;;;2.63;1.25;;;;;;;;;;5001722;28;20034;-89
2023/10/12 01:35:33;;;;;;;3.05;1.10;;;;;;;;;;5003539;27;20053;-86
2023/10/12 01:38:05;;;;;;;3.85;1.20;;;;;;;;;;5001737;27;20048;-88
2023/10/12 01:43:20;;;;;;;5.50;1.08;;;;;;;;;;5016259;27;20108;-88
2023/10/12 01:45:59;;;;;;;5.15;1.40;;;;;;;;;;5032883;28;20061;-88
2023/10/12 01:48:33;;;;;;;2.50;1.00;;;;;;;;;;5025747;28;20052;-88
2023/10/12 01:51:16;;;;;;;3.05;1.27;;;;;;;;;;5021165;28;20046;-86
2023/10/12 01:53:49;;;;;;;1.73;0.90;;;;;;;;;;5016195;28;20068;-86
2023/10/12 01:56:19;;;;;;;1.50;0.65;;;;;;;;;;4998713;28;20045;-84
2023/10/12 01:58:51;;;;;;;2.28;0.43;;;;;;;;;;5013236;28;20061;-86
2023/10/12 02:01:24;;;;;;;1.30;0.63;;;;;;;;;;5016733;28;20049;-87
2023/10/12 02:03:55;;;;;;;;;;;;;;;;;;5015303;28;20479;-89
2023/10/12 02:06:28;;;;;;;2.40;1.38;;;;;;;;;;5015922;28;20283;-87
2023/10/12 02:09:08;;;;;;;2.17;0.82;;;;;;;;;;5013533;28;20065;-88
2023/10/12 02:11:46;;;;;;;2.53;1.17;;;;;;;;;;5013882;28;20050;-87
2023/10/12 02:14:24;;;;;;;1.42;0.80;;;;;;;;;;5004441;28;20046;-87
2023/10/12 02:16:55;;;;;;;1.55;0.60;;;;;;;;;;4976761;28;20049;-88
2023/10/12 02:19:49;;;;;;;1.83;0.88;;;;;;;;;;4992248;28;20080;-87
2023/10/12 02:22:24;;;;;;;1.23;0.70;;;;;;;;;;4992486;28;20054;-87
2023/10/12 02:25:18;;;;;;;3.00;0.90;;;;;;;;;;4976689;28;20058;-85
2023/10/12 02:27:58;;;;;;;3.35;1.35;;;;;;;;;;4975942;28;20053;-86
2023/10/12 02:30:29;;;;;;;4.97;1.35;;;;;;;;;;4994571;28;20416;-86
2023/10/12 02:33:08;;;;;;;2.67;1.50;;;;;;;;;;5010839;28;20041;-85
2023/10/12 02:35:44;;;;;;;2.42;1.40;;;;;;;;;;4978663;28;20053;-87
2023/10/12 02:38:15;;;;;;;2.28;1.30;;;;;;;;;;5026629;28;20057;-88
2023/10/12 02:40:46;;;;;;;3.60;1.67;;;;;;;;;;5009226;28;20059;-89
2023/10/12 02:43:19;;;;;;;3.90;1.33;;;;;;;;;;4993115;28;20056;-87
2023/10/12 02:45:52;;;;;;;5.20;2.20;;;;;;;;;;5011319;28;20061;-87
2023/10/12 02:48:25;;;;;;;5.32;2.00;;;;;;;;;;5013959;28;20530;-86
2023/10/12 02:51:06;;;;;;;4.72;2.10;;;;;;;;;;5040207;28;20045;-86
2023/10/12 02:53:39;;;;;;;6.13;3.40;;;;;;;;;;4993931;28;20415;-85
2023/10/12 02:56:11;;;;;;;5.47;3.10;;;;;;;;;;4989540;28;20057;-87
2023/10/12 02:58:45;;;;;;;11.05;3.50;;;;;;;;;;5041536;28;20053;-87
2023/10/12 03:01:22;;;;;;;7.68;3.42;;;;;;;;;;5075734;28;20066;-85
2023/10/12 03:03:54;;;;;;;7.78;3.33;;;;;;;;;;5075693;28;20042;-85
2023/10/12 03:06:32;;;;;;;7.60;3.10;;;;;;;;;;5076252;28;20046;-85
2023/10/12 03:09:14;;;;;;;6.45;2.30;;;;;;;;;;5060891;28;20058;-91
2023/10/12 03:11:47;;;;;;;5.10;1.58;;;;;;;;;;5076752;28;20049;-87
2023/10/12 03:14:26;;;;;;;4.60;1.48;;;;;;;;;;5043781;28;20061;-84
2023/10/12 03:17:03;;;;;;;2.08;1.10;;;;;;;;;;4991922;28;20046;-88
2023/10/12 03:19:37;;;;;;;3.80;1.13;;;;;;;;;;4975299;28;20052;-89
2023/10/12 03:25:19;;;;;;;3.40;1.42;;;;;;;;;;5009360;28;20399;-88
2023/10/12 03:27:53;;;;;;;3.08;1.10;;;;;;;;;;5013722;28;20045;-86
2023/10/12 03:30:34;;;;;;;2.50;1.08;;;;;;;;;;5012633;28;20076;-82
2023/10/12 03:33:09;;;;;;;2.83;0.90;;;;;;;;;;5012853;28;20045;-82
2023/10/12 03:35:57;;;;;;;1.67;0.80;;;;;;;;;;5013279;28;20352;-84
2023/10/12 03:38:32;;;;;;;1.92;0.70;;;;;;;;;;5010345;28;20042;-83
2023/10/12 03:44:03;;;;;;;1.30;0.50;;;;;;;;;;5008828;28;20058;-86
2023/10/12 03:46:34;;;;;;;1.55;0.55;;;;;;;;;;5008364;28;20042;-88
2023/10/12 03:51:42;;;;;;;1.50;0.60;;;;;;;;;;5010576;28;20050;-85
2023/10/12 03:54:26;;;;;;;2.22;0.68;;;;;;;;;;5010196;28;20042;-86
2023/10/12 03:57:19;;;;;;;1.10;0.52;;;;;;;;;;5008207;28;20053;-87
2023/10/12 04:21:33;;;;;;;6.78;3.42;;;;;;;;;;5006453;28;20062;-86
2023/10/12 04:29:39;;;;;;;7.10;2.78;;;;;;;;;;5011783;28;20169;-87
2023/10/12 04:32:15;;;;;;;;;;;;;;;;;;5013749;28;20038;-87
2023/10/12 04:34:49;;;;;;;4.00;2.03;;;;;;;;;;5011554;28;19921;-87
2023/10/12 04:37:27;;;;;;;5.18;2.25;;;;;;;;;;5013114;28;20061;-86
2023/10/12 04:40:08;;;;;;;5.40;2.83;;;;;;;;;;4994869;28;20054;-87
2023/10/12 04:42:44;;;;;;;4.95;2.47;;;;;;;;;;5011273;28;20054;-88
2023/10/12 04:47:57;;;;;;;3.80;2.03;;;;;;;;;;5011362;28;20046;-88
2023/10/12 04:50:59;;;;;;;5.10;1.85;;;;;;;;;;5011630;28;20050;-88
2023/10/12 04:53:35;;;;;;;4.45;1.75;;;;;;;;;;5012437;28;20046;-88
2023/10/12 04:56:10;;;;;;;5.30;1.92;;;;;;;;;;4995428;28;20045;-88
2023/10/12 04:58:56;;;;;;;4.20;1.80;;;;;;;;;;5013045;28;20053;-88
2023/10/12 05:01:40;;;;;;;2.20;1.40;;;;;;;;;;5010748;28;20049;-87
2023/10/12 05:04:24;;;;;;;;;;;;;;;;;;5013015;28;20042;-88
2023/10/12 05:07:20;;;;;;;4.38;1.40;;;;;;;;;;4994871;28;19928;-88
2023/10/12 05:09:50;;;;;;;4.90;2.08;;;;;;;;;;5012789;28;20480;-86
2023/10/12 05:12:24;;;;;;;5.93;2.67;;;;;;;;;;5010825;28;20050;-87
2023/10/12 05:14:59;;;;;;;4.40;2.53;;;;;;;;;;5012557;28;20045;-87
2023/10/12 05:17:29;;;;;;;4.65;2.47;;;;;;;;;;4995098;28;20050;-84
2023/10/12 05:19:59;;;;;;;5.72;2.53;;;;;;;;;;5011227;28;20374;-86
2023/10/12 05:22:29;;;;;;;5.63;2.92;;;;;;;;;;5011786;28;20050;-86
2023/10/12 05:25:01;;;;;;;4.00;2.30;;;;;;;;;;5012467;28;20042;-86
2023/10/12 05:27:39;;;;;;;4.30;2.13;;;;;;;;;;5010372;28;20049;-88
2023/10/12 05:30:19;;;;;;;4.63;2.67;;;;;;;;;;5011977;28;20527;-87
2023/10/12 05:32:56;;;;;;;4.05;2.15;;;;;;;;;;5012564;28;20515;-88
2023/10/12 05:38:17;;;;;;;3.83;2.17;;;;;;;;;;5011966;28;20049;-87
2023/10/12 05:40:55;;;;;;;6.13;2.63;;;;;;;;;;4996305;28;20041;-88
2023/10/12 05:43:29;;;;;;;4.97;2.70;;;;;;;;;;5011255;28;20049;-86
2023/10/12 05:46:15;;;;;;;6.95;3.17;;;;;;;;;;5011720;28;20054;-88
2023/10/12 05:48:46;;;;;;;6.22;3.88;;;;;;;;;;5011035;28;20399;-88
2023/10/12 05:51:21;;;;;;;5.85;3.75;;;;;;;;;;5012470;28;20057;-88
2023/10/12 05:56:43;;;;;;;10.00;6.03;;;;;;;;;;4989816;28;20057;-87
2023/10/12 05:59:14;;;;;;;6.88;3.80;;;;;;;;;;5011671;28;20046;-87
2023/10/12 06:01:51;;;;;;;6.40;3.22;;;;;;;;;;5010553;28;20147;-87
2023/10/12 06:04:22;;;;;;;6.72;3.03;;;;;;;;;;5011640;28;20116;-88
2023/10/12 06:06:53;;;;;;;6.15;2.70;;;;;;;;;;5011985;28;20069;-88
2023/10/12 06:09:24;;;;;;;4.88;2.67;;;;;;;;;;4994709;28;20054;-88
2023/10/12 06:11:56;;;;;;;5.60;2.38;;;;;;;;;;5009690;28;20049;-86
2023/10/12 06:14:26;;;;;;;4.53;2.72;;;;;;;;;;5012011;28;20053;-86
2023/10/12 06:17:02;;;;;;;5.97;2.58;;;;;;;;;;5011889;28;20045;-86
2023/10/12 06:19:34;;;;;;;3.80;1.95;;;;;;;;;;5009821;28;20510;-88
2023/10/12 06:22:23;;;;;;;6.40;2.75;;;;;;;;;;5011806;28;20353;-85
2023/10/12 06:24:53;;;;;;;6.50;3.20;;;;;;;;;;5011705;28;20046;-86
2023/10/12 06:27:25;;;;;;;5.10;2.90;;;;;;;;;;5011900;28;20046;-86
2023/10/12 06:29:55;;;;;;;6.80;3.20;;;;;;;;;;5011546;28;20480;-87
2023/10/12 06:32:38;;;;;;;8.02;3.80;;;;;;;;;;4994115;28;20057;-87
2023/10/12 06:48:40;;;;;;;8.13;3.45;;;;;;;;;;5011311;28;20054;-87
2023/10/12 06:51:15;;;;;;;5.93;2.88;;;;;;;;;;5009532;28;20057;-87
2023/10/12 06:53:54;;;;;;;6.78;1.95;;;;;;;;;;5011315;28;20134;-88
2023/10/12 06:56:24;;;;;;;4.28;1.75;;;;;;;;;;5011110;28;20061;-87
2023/10/12 07:04:27;;;;;;;1.90;0.50;;;;;;;;;;5094956;28;20054;-86
2023/10/12 07:07:00;;;;;;;1.55;0.40;;;;;;;;;;5009245;28;20057;-85
2023/10/12 07:09:39;;;;;;;3.05;0.60;;;;;;;;;;5010891;28;20053;-87
2023/10/12 07:12:15;;;;;;;1.00;0.52;;;;;;;;;;5009886;28;20496;-89
2023/10/12 07:14:47;;;;;;;0.40;0.17;;;;;;;;;;5010202;28;20042;-89
2023/10/12 07:17:17;;;;;;;1.38;0.10;;;;;;;;;;5018222;28;20037;-88
2023/10/12 07:19:51;;;;;;;0.65;0.25;;;;;;;;;;5034910;28;20037;-86
2023/10/12 07:22:22;;;;;;;1.52;0.70;;;;;;;;;;5034190;28;20034;-87
2023/10/12 07:24:56;;;;;;;1.33;0.85;;;;;;;;;;5034106;28;20038;-87
2023/10/12 07:27:29;;;;;;;2.78;0.80;;;;;;;;;;5033786;28;20038;-85
2023/10/12 07:30:14;;;;;;;2.17;0.82;;;;;;;;;;5019305;28;20049;-89
2023/10/12 07:32:55;;;;;;;2.05;0.80;;;;;;;;;;5011019;28;20484;-86
2023/10/12 07:35:38;;;;;;;1.70;0.85;;;;;;;;;;5008480;28;20050;-87
2023/10/12 07:38:14;;;;;;;2.33;0.80;;;;;;;;;;5010398;28;20049;-88
2023/10/12 07:40:56;;;;;;;1.48;0.68;;;;;;;;;;5010804;28;20046;-87
2023/10/12 07:43:32;;;;;;;7.72;1.02;;;;;;;;;;5010065;28;20403;-89
2023/10/12 07:46:25;;;;;;;3.17;0.75;;;;;;;;;;5009430;28;20065;-89
2023/10/12 07:49:10;;;;;;;3.28;0.90;;;;;;;;;;5012029;28;20053;-89
2023/10/12 07:51:59;;;;;;;1.40;0.75;;;;;;;;;;5013268;28;20042;-88
2023/10/12 07:57:20;;;;;;;2.55;0.57;;;;;;;;;;5012189;28;20053;-85
2023/10/12 08:10:48;;;;;;;0.90;0.30;;;;;;;;;;5014175;28;20523;-92
2023/10/12 08:15:56;;;;;;;0.80;0.20;;;;;;;;;;5011935;28;20050;-89
2023/10/12 08:21:24;;;;;;;2.15;0.32;;;;;;;;;;5013650;28;20050;-87
2023/10/12 08:24:09;;;;;;;0.63;0.20;;;;;;;;;;5013222;28;20053;-86
2023/10/12 08:37:18;;;;;;;1.63;0.20;;;;;;;;;;5013526;28;20046;-90
2023/10/12 08:45:15;;;;;;;0.30;0.10;;;;;;;;;;5097171;28;20083;-87
2023/10/12 08:47:49;;;;;;;2.45;0.10;;;;;;;;;;5011503;28;20408;-87
2023/10/12 08:52:52;;;;;;;0.15;0.10;;;;;;;;;;5012729;28;20050;-87
2023/10/12 08:55:24;;;;;;;1.08;0.22;;;;;;;;;;5012625;28;20064;-85
2023/10/12 08:58:01;;;;;;;0.88;0.20;;;;;;;;;;5011651;28;20104;-87
2023/10/12 09:03:14;;;;;;;0.25;0.10;;;;;;;;;;5012430;28;20057;-88
2023/10/12 09:05:51;;;;;;;0.30;0.10;;;;;;;;;;5013065;28;20503;-84
2023/10/12 09:13:35;;;;;;;0.65;0.10;;;;;;;;;;5013440;28;20053;-87
2023/10/12 09:16:14;;;;;;;;;;;;;;;;;;4995531;28;20050;-89
2023/10/12 09:18:56;;;;;;;1.02;0.30;;;;;;;;;;5011743;28;19945;-86
2023/10/12 09:21:39;;;;;;;2.30;0.22;;;;;;;;;;5011287;28;20049;-87
2023/10/12 09:24:26;;;;;;;0.30;0.20;;;;;;;;;;5012132;28;20073;-89
2023/10/12 09:27:01;;;;;;;2.45;0.20;;;;;;;;;;4995081;28;20061;-88
2023/10/12 09:29:42;;;;;;;2.47;0.20;;;;;;;;;;5012769;28;20050;-85
2023/10/12 09:32:14;;;;;;;1.35;0.20;;;;;;;;;;5011281;28;20049;-86
2023/10/12 09:37:28;;;;;;;1.13;0.20;;;;;;;;;;5011939;28;20048;-86
2023/10/12 09:39:59;;;;;;;1.45;0.20;;;;;;;;;;5011913;28;20049;-84
2023/10/12 09:42:32;;;;;;;0.65;0.40;;;;;;;;;;5011127;28;20042;-84
2023/10/12 09:45:10;;;;;;;2.25;0.10;;;;;;;;;;5010646;28;20054;-85
2023/10/12 09:48:05;;;;;;;1.08;0.20;;;;;;;;;;5010566;28;20046;-87
2023/10/12 09:50:37;;;;;;;1.77;0.20;;;;;;;;;;5010555;28;20057;-86
2023/10/12 09:53:21;;;;;;;0.47;0.20;;;;;;;;;;5012261;28;20038;-88
2023/10/12 09:56:10;;;;;;;1.85;0.10;;;;;;;;;;5010498;28;20081;-88
2023/10/12 09:58:51;;;;;;;0.68;0.20;;;;;;;;;;5009758;28;20046;-87
2023/10/12 10:01:45;;;;;;;1.40;0.32;;;;;;;;;;5011828;28;20046;-85
2023/10/12 10:10:00;;;;;;;0.47;0.20;;;;;;;;;;5012964;28;20046;-86
2023/10/12 10:12:36;;;;;;;1.50;0.40;;;;;;;;;;5012939;28;20068;-83
2023/10/12 10:15:13;;;;;;;2.72;0.40;;;;;;;;;;5031505;28;20038;-84
2023/10/12 10:17:56;;;;;;;2.22;0.30;;;;;;;;;;5031013;28;20045;-83
2023/10/12 10:23:01;;;;;;;1.08;0.30;;;;;;;;;;5031053;28;20049;-83
2023/10/12 10:25:50;;;;;;;0.68;0.40;;;;;;;;;;5030878;28;20042;-86
2023/10/12 10:28:34;;;;;;;0.63;0.50;;;;;;;;;;5031709;28;20388;-86
2023/10/12 10:31:11;;;;;;;0.65;0.13;;;;;;;;;;5031426;28;20041;-84
2023/10/12 10:33:43;;;;;;;0.95;0.30;;;;;;;;;;5031268;28;20052;-86
2023/10/12 10:36:25;;;;;;;1.10;1.02;;;;;;;;;;5012849;28;20493;-86
2023/10/12 10:38:56;;;;;;;0.65;0.15;;;;;;;;;;5031202;28;20053;-89
2023/10/12 10:41:46;;;;;;;0.50;0.22;;;;;;;;;;5012703;28;20076;-88
2023/10/12 10:44:21;;;;;;;0.65;0.65;;;;;;;;;;5014079;28;20057;-87
2023/10/12 10:47:00;;;;;;;0.90;0.30;;;;;;;;;;5030712;28;20064;-88
2023/10/12 10:49:31;;;;;;;0.60;0.30;;;;;;;;;;5093096;28;20057;-87
2023/10/12 10:54:59;;;;;;;;;;;;;;;;;;5009117;28;21595;-86
2023/10/12 10:57:37;;;;;;;0.70;0.45;;;;;;;;;;5008844;28;20406;-86
2023/10/12 11:00:18;;;;;;;2.92;0.20;;;;;;;;;;4992041;28;20053;-86
2023/10/12 11:02:52;;;;;;;0.70;0.30;;;;;;;;;;4975205;28;20046;-87
2023/10/12 11:05:28;;;;;;;2.08;0.60;;;;;;;;;;5009355;28;21542;-85
2023/10/12 11:08:19;;;;;;;1.95;0.50;;;;;;;;;;5008969;28;20500;-86
2023/10/12 11:11:25;;;;;;;0.73;0.35;;;;;;;;;;5008528;28;20058;-87
2023/10/12 11:13:58;;;;;;;0.80;0.32;;;;;;;;;;5008237;28;20388;-87
2023/10/12 11:16:30;;;;;;;1.85;0.30;;;;;;;;;;5008725;28;20054;-87
2023/10/12 11:19:01;;;;;;;0.82;0.20;;;;;;;;;;5007268;28;20038;-86
2023/10/12 11:21:32;;;;;;;1.23;0.20;;;;;;;;;;4991472;28;20049;-88
2023/10/12 11:24:04;;;;;;;2.08;0.20;;;;;;;;;;5008625;28;20046;-87
2023/10/12 11:26:51;;;;;;;2.17;0.30;;;;;;;;;;5012582;28;20061;-87
2023/10/12 11:29:24;;;;;;;0.40;0.20;;;;;;;;;;4994807;28;20042;-89
2023/10/12 11:32:16;;;;;;;0.30;0.20;;;;;;;;;;5010616;28;20069;-87
2023/10/12 11:34:52;;;;;;;0.90;0.20;;;;;;;;;;5012210;28;20045;-87
2023/10/12 11:37:25;;;;;;;0.52;0.10;;;;;;;;;;5012057;28;20057;-86
2023/10/12 11:39:57;;;;;;;1.13;0.30;;;;;;;;;;4993872;28;20624;-86
2023/10/12 11:42:28;;;;;;;1.45;0.60;;;;;;;;;;5013813;28;20057;-86
2023/10/12 11:45:09;;;;;;;2.53;0.90;;;;;;;;;;5012658;28;20049;-85
2023/10/12 11:47:43;;;;;;;3.30;0.60;;;;;;;;;;5013801;28;20064;-86
2023/10/12 11:50:13;;;;;;;0.98;0.40;;;;;;;;;;5031625;28;20049;-85
2023/10/12 11:52:50;;;;;;;1.00;0.55;;;;;;;;;;5013963;28;20399;-87
2023/10/12 11:55:21;;;;;;;1.00;0.32;;;;;;;;;;5013292;28;20407;-87
2023/10/12 11:57:57;;;;;;;1.63;0.52;;;;;;;;;;4996930;28;20057;-85
2023/10/12 12:00:48;;;;;;;3.88;0.50;;;;;;;;;;5014135;28;20530;-85
2023/10/12 12:03:19;;;;;;;3.00;0.40;;;;;;;;;;5031283;28;20057;-86
2023/10/12 12:05:52;;;;;;;1.80;0.52;;;;;;;;;;5031686;28;20068;-86
2023/10/12 12:08:25;;;;;;;2.25;0.30;;;;;;;;;;5013576;28;20046;-89
2023/10/12 12:10:56;;;;;;;2.78;0.60;;;;;;;;;;5013325;28;20519;-88
2023/10/12 12:13:26;;;;;;;0.22;0.22;;;;;;;;;;5020212;28;20172;-86
2023/10/12 12:15:56;;;;;;;0.85;0.43;;;;;;;;;;5018820;28;20034;-85
2023/10/12 12:18:27;;;;;;;0.68;0.43;;;;;;;;;;5035702;27;20045;-85
2023/10/12 12:21:03;;;;;;;4.18;0.70;;;;;;;;;;5035126;28;20032;-86
2023/10/12 12:23:35;;;;;;;1.00;0.50;;;;;;;;;;5034685;28;20030;-84
2023/10/12 12:26:13;;;;;;;1.98;0.50;;;;;;;;;;5034738;28;20032;-85
2023/10/12 12:28:45;;;;;;;1.55;0.60;;;;;;;;;;5012903;28;20068;-85
2023/10/12 12:31:15;;;;;;;36.28;15.32;;;;;;;;;;5011843;28;20049;-87
2023/10/12 12:33:46;;;;;;;4.47;1.90;;;;;;;;;;4992348;28;20065;-83
2023/10/12 12:36:22;;;;;;;5.15;2.78;;;;;;;;;;5007189;28;20061;-85
2023/10/12 12:38:57;;;;;;;3.03;1.30;;;;;;;;;;5008328;28;20058;-82
2023/10/12 12:41:30;;;;;;;5.07;1.70;;;;;;;;;;5010246;28;20053;-85
2023/10/12 12:44:01;;;;;;;4.88;2.22;;;;;;;;;;5008041;28;20050;-82
2023/10/12 12:46:32;;;;;;;3.25;1.70;;;;;;;;;;5009952;28;20041;-83
2023/10/12 12:49:03;;;;;;;3.20;0.95;;;;;;;;;;5009322;28;20058;-83
2023/10/12 12:51:34;;;;;;;5.25;3.10;;;;;;;;;;5009932;28;20045;-83
2023/10/12 12:54:05;;;;;;;1.05;0.50;;;;;;;;;;5008431;28;20058;-83
2023/10/12 12:56:36;;;;;;;5.45;2.17;;;;;;;;;;5009397;28;20049;-82
2023/10/12 12:59:10;;;;;;;6.25;3.42;;;;;;;;;;5010556;28;20038;-83
2023/10/12 13:01:41;;;;;;;5.28;1.50;;;;;;;;;;5009224;28;20053;-80
2023/10/12 13:04:14;;;;;;;1.35;0.68;;;;;;;;;;5009219;28;20496;-83
2023/10/12 13:06:44;;;;;;;2.10;1.10;;;;;;;;;;5009221;28;20071;-83
2023/10/12 13:09:28;;;;;;;3.80;1.30;;;;;;;;;;5010304;28;20056;-83
2023/10/12 13:11:58;;;;;;;2.85;1.13;;;;;;;;;;5022400;28;20045;-84
2023/10/12 13:14:29;;;;;;;4.90;2.65;;;;;;;;;;5030147;28;20055;-82
2023/10/12 13:16:59;;;;;;;15.07;8.65;;;;;;;;;;5029066;28;20415;-84
2023/10/12 13:19:31;;;;;;;11.98;6.13;;;;;;;;;;5015871;28;20061;-81
2023/10/12 13:22:01;;;;;;;3.35;1.77;;;;;;;;;;5012714;28;20046;-82
2023/10/12 13:24:35;;;;;;;2.58;1.30;;;;;;;;;;5012227;28;20046;-85
2023/10/12 13:27:08;;;;;;;2.70;1.27;;;;;;;;;;5012834;28;20054;-83
2023/10/12 13:29:38;;;;;;;2.17;1.05;;;;;;;;;;5011737;28;20042;-84
2023/10/12 13:32:12;;;;;;;3.42;1.73;;;;;;;;;;5012605;28;20042;-82
2023/10/12 13:34:45;;;;;;;2.92;1.77;;;;;;;;;;5012336;28;20042;-82
2023/10/12 13:37:15;;;;;;;2.45;1.35;;;;;;;;;;5014003;28;20054;-82
2023/10/12 13:39:45;;;;;;;2.15;0.90;;;;;;;;;;5017170;28;20053;-83
2023/10/12 13:42:15;;;;;;;0.90;0.60;;;;;;;;;;5021877;28;20053;-83
2023/10/12 13:44:49;;;;;;;2.83;1.20;;;;;;;;;;5018182;28;20057;-83
2023/10/12 13:47:19;;;;;;;3.55;1.70;;;;;;;;;;5017004;28;20042;-82
2023/10/12 13:49:49;;;;;;;1.98;0.80;;;;;;;;;;5017432;28;20057;-83
2023/10/12 13:52:21;;;;;;;2.65;1.42;;;;;;;;;;5001931;28;20050;-83
2023/10/12 13:55:17;;;;;;;3.05;1.13;;;;;;;;;;5026973;28;20064;-82
2023/10/12 13:58:00;;;;;;;2.60;1.23;;;;;;;;;;5011163;28;20431;-82
2023/10/12 14:00:34;;;;;;;1.80;0.90;;;;;;;;;;4992352;28;20081;-82
2023/10/12 14:03:36;;;;;;;4.68;1.30;;;;;;;;;;5010292;28;20049;-81
2023/10/12 14:06:06;;;;;;;3.58;1.40;;;;;;;;;;4992956;28;20065;-82
2023/10/12 14:08:40;;;;;;;2.95;1.13;;;;;;;;;;5013952;28;20056;-81
2023/10/12 14:11:18;;;;;;;2.92;1.17;;;;;;;;;;5011759;28;20804;-82
2023/10/12 14:13:50;;;;;;;3.30;1.58;;;;;;;;;;5011770;28;20038;-82
2023/10/12 14:16:33;;;;;;;5.30;1.60;;;;;;;;;;5013931;28;20396;-82
2023/10/12 14:19:03;;;;;;;2.83;1.42;;;;;;;;;;5016099;28;20049;-82
2023/10/12 14:21:39;;;;;;;2.92;1.50;;;;;;;;;;5013822;28;20042;-82
2023/10/12 14:24:09;;;;;;;10.70;4.18;;;;;;;;;;5015191;28;20038;-81
2023/10/12 14:26:44;;;;;;;8.40;4.50;;;;;;;;;;5014799;28;20399;-82
2023/10/12 14:29:18;;;;;;;2.35;1.02;;;;;;;;;;5014114;28;20050;-84
2023/10/12 14:31:48;;;;;;;3.08;1.50;;;;;;;;;;5013225;28;20046;-83
2023/10/12 14:34:20;;;;;;;7.22;4.05;;;;;;;;;;5014065;28;20050;-83
2023/10/12 14:36:50;;;;;;;4.47;2.40;;;;;;;;;;5012876;28;20042;-85
2023/10/12 14:39:25;;;;;;;2.15;0.85;;;;;;;;;;5014493;28;20053;-83
2023/10/12 14:41:56;;;;;;;4.47;1.70;;;;;;;;;;5014820;28;20057;-84
2023/10/12 14:44:29;;;;;;;7.45;2.90;;;;;;;;;;5011121;28;20054;-83
2023/10/12 14:47:06;;;;;;;5.22;2.30;;;;;;;;;;5012644;28;20507;-83
2023/10/12 14:49:37;;;;;;;4.72;2.17;;;;;;;;;;4995614;28;20054;-83
2023/10/12 14:52:08;;;;;;;7.55;3.30;;;;;;;;;;5011384;28;20065;-83
2023/10/12 14:55:10;;;;;;;11.48;5.47;;;;;;;;;;5011803;28;20054;-84
2023/10/12 14:57:42;;;;;;;16.30;6.78;;;;;;;;;;5014985;28;20052;-83
2023/10/12 15:00:25;;;;;;;3.30;0.93;;;;;;;;;;5011198;28;20492;-83
2023/10/12 15:02:57;;;;;;;2.75;1.30;;;;;;;;;;5009000;28;20065;-83
2023/10/12 15:05:33;;;;;;;6.13;2.42;;;;;;;;;;5010902;28;20053;-83
2023/10/12 15:08:07;;;;;;;1.30;0.70;;;;;;;;;;5011561;28;20210;-83
2023/10/12 15:10:48;;;;;;;2.15;1.00;;;;;;;;;;5008994;28;20053;-83
2023/10/12 15:16:37;;;;;;;3.42;1.85;;;;;;;;;;5011815;28;20042;-82
2023/10/12 15:19:08;;;;;;;7.57;3.25;;;;;;;;;;5011650;28;20384;-81
2023/10/12 15:21:39;;;;;;;1.80;1.02;;;;;;;;;;5009218;28;20050;-82
2023/10/12 15:24:10;;;;;;;2.72;1.33;;;;;;;;;;5008658;28;20077;-81
2023/10/12 15:26:40;;;;;;;3.42;0.93;;;;;;;;;;5008745;28;20069;-82
2023/10/12 15:29:10;;;;;;;3.20;1.27;;;;;;;;;;5008445;28;20087;-83
2023/10/12 15:31:40;;;;;;;0.95;0.68;;;;;;;;;;4992042;28;20053;-83
2023/10/12 15:34:19;;;;;;;2.70;0.70;;;;;;;;;;5008399;28;20499;-83
2023/10/12 15:36:50;;;;;;;7.30;2.70;;;;;;;;;;5009975;28;20415;-80
2023/10/12 15:39:20;;;;;;;6.70;1.65;;;;;;;;;;5007970;28;20058;-82
2023/10/12 15:41:50;;;;;;;4.30;0.90;;;;;;;;;;5006400;28;20054;-81
2023/10/12 15:44:22;;;;;;;3.15;1.58;;;;;;;;;;5009818;28;20085;-82
2023/10/12 15:46:54;;;;;;;2.55;1.05;;;;;;;;;;5008801;28;20061;-83
2023/10/12 15:49:26;;;;;;;2.40;0.88;;;;;;;;;;5006967;28;20066;-82
2023/10/12 15:51:56;;;;;;;1.10;0.55;;;;;;;;;;5008954;28;20046;-82
2023/10/12 15:54:31;;;;;;;1.13;0.60;;;;;;;;;;5008183;28;20064;-83
2023/10/12 15:57:02;;;;;;;1.77;0.93;;;;;;;;;;5009053;28;20065;-82
2023/10/12 15:59:33;;;;;;;0.65;0.43;;;;;;;;;;5008368;28;20385;-83
2023/10/12 16:02:03;;;;;;;1.55;0.63;;;;;;;;;;5008963;28;20046;-83
2023/10/12 16:04:33;;;;;;;3.05;1.23;;;;;;;;;;5008274;28;20505;-82
2023/10/12 16:07:05;;;;;;;0.70;0.50;;;;;;;;;;5010232;28;21277;-84
2023/10/12 16:09:36;;;;;;;2.35;0.52;;;;;;;;;;5027910;28;20065;-83
2023/10/12 16:12:06;;;;;;;0.70;0.50;;;;;;;;;;5013820;28;20048;-82
2023/10/12 16:14:37;;;;;;;1.50;0.90;;;;;;;;;;5050144;28;20057;-83
2023/10/12 16:17:07;;;;;;;2.03;0.93;;;;;;;;;;5031378;28;20042;-83
2023/10/12 16:19:39;;;;;;;2.58;0.70;;;;;;;;;;5099803;28;20049;-82
2023/10/12 16:22:09;;;;;;;1.25;0.60;;;;;;;;;;5032647;28;20041;-82
2023/10/12 16:24:42;;;;;;;0.98;0.50;;;;;;;;;;5030866;28;20048;-82
2023/10/12 16:27:12;;;;;;;1.73;0.73;;;;;;;;;;5030997;28;20404;-83
2023/10/12 16:29:43;;;;;;;0.80;0.40;;;;;;;;;;5033210;28;20053;-82
2023/10/12 16:32:28;;;;;;;1.38;0.80;;;;;;;;;;5030593;28;20669;-81
2023/10/12 16:34:59;;;;;;;2.05;0.60;;;;;;;;;;5098624;28;20056;-79
2023/10/12 16:37:29;;;;;;;1.73;0.80;;;;;;;;;;5020656;28;20484;-81
2023/10/12 16:40:05;;;;;;;1.70;0.70;;;;;;;;;;5009928;28;20053;-82
2023/10/12 16:42:35;;;;;;;2.03;0.65;;;;;;;;;;5010603;28;20058;-80
2023/10/12 16:45:08;;;;;;;1.75;0.90;;;;;;;;;;4992660;28;20064;-82
2023/10/12 16:47:40;;;;;;;3.55;0.85;;;;;;;;;;5009448;28;20069;-82
2023/10/12 16:50:11;;;;;;;1.60;0.80;;;;;;;;;;5011374;28;20060;-82
2023/10/12 16:52:41;;;;;;;1.95;0.70;;;;;;;;;;5010813;28;20046;-83
2023/10/12 16:55:12;;;;;;;0.47;0.30;;;;;;;;;;5010610;28;20053;-83
2023/10/12 16:57:42;;;;;;;0.93;0.50;;;;;;;;;;5011417;28;20054;-83
2023/10/12 17:00:22;;;;;;;1.25;0.70;;;;;;;;;;5011497;28;20042;-82
2023/10/12 17:08:59;;;;;;;2.95;0.60;;;;;;;;;;5737970;23;20038;-81
2023/10/12 17:11:31;;;;;;;0.50;0.47;;;;;;;;;;5790405;22;20025;-85
2023/10/12 17:17:54;;;;;;;1.40;0.82;;;;;;;;;;5637045;22;20059;-80
2023/10/12 17:20:26;;;;;;;1.27;0.70;;;;;;;;;;4995988;28;20398;-83
2023/10/12 17:22:57;;;;;;;2.45;0.73;;;;;;;;;;4994942;28;20058;-82
2023/10/12 17:25:28;;;;;;;0.82;0.50;;;;;;;;;;4994574;28;20055;-78
2023/10/12 17:27:59;;;;;;;0.60;0.30;;;;;;;;;;4994330;28;20046;-81
2023/10/12 17:30:30;;;;;;;0.70;0.30;;;;;;;;;;4993721;28;20057;-83
2023/10/12 17:33:25;;;;;;;1.33;0.30;;;;;;;;;;4994929;28;20046;-82
2023/10/12 17:35:56;;;;;;;0.80;0.50;;;;;;;;;;4995323;28;20061;-82
2023/10/12 17:38:29;;;;;;;0.70;0.40;;;;;;;;;;4994838;28;20073;-83
2023/10/12 17:41:01;;;;;;;4.15;0.60;;;;;;;;;;4956223;28;20067;-82
2023/10/12 17:43:34;;;;;;;1.25;0.68;;;;;;;;;;4955649;28;20198;-81
2023/10/12 17:46:11;;;;;;;1.90;0.77;;;;;;;;;;4957125;28;20059;-81
2023/10/12 17:48:41;;;;;;;0.85;0.35;;;;;;;;;;4956521;28;20058;-83
2023/10/12 17:51:21;;;;;;;3.45;0.50;;;;;;;;;;4959445;28;20529;-83
2023/10/12 17:54:19;;;;;;;;;;;;;;;;;;4961808;28;20085;-79
2023/10/12 17:56:49;;;;;;;0.50;0.40;;;;;;;;;;4955929;29;19934;-83
2023/10/12 17:59:19;;;;;;;2.05;0.70;;;;;;;;;;4952888;28;20596;-81
2023/10/12 18:01:49;;;;;;;1.33;0.73;;;;;;;;;;4953346;29;20193;-82
2023/10/12 18:04:53;;;;;;;2.20;0.30;;;;;;;;;;4955487;28;20040;-82
2023/10/12 18:11:24;;;;;;;1.00;0.70;;;;;;;;;;4954180;28;20055;-83